Time;durP1;ratioP1;P1;durP2;ratioP2;P2;SDS_P1;SDS_P2;PMS_P1;PMS_P2;Temp;Humidity;BMP_temperature;BMP_pressure;BME280_temperature;BME280_humidity;BME280_pressure;Samples;Min_cycle;Max_cycle;Signal;HPM_P1;HPM_P2
2022/03/24 00:01:49;;;;;;;;;;;;;;;;;;5001125;27;134124;-65
2022/03/24 00:04:15;;;;;;;;;;;;;;;;;;5006196;28;125247;-65
2022/03/24 00:06:42;;;;;;;;;;;;;;;;;;5005627;28;136512;-64
2022/03/24 00:09:08;;;;;;;;;;;;;;;;;;5001151;28;137356;-64
2022/03/24 00:11:34;;;;;;;;;;;;;;;;;;4998509;28;123118;-65
2022/03/24 00:14:01;;;;;;;;;;;;;;;;;;4991178;28;136368;-64
2022/03/24 00:16:27;;;;;;;;;;;;;;;;;;5010543;27;135582;-64
2022/03/24 00:18:53;;;;;;;;;;;;;;;;;;4992051;28;136669;-64
2022/03/24 00:21:19;;;;;;;;;;;;;;;;;;5002057;28;135667;-64
2022/03/24 00:23:46;;;;;;;;;;;;;;;;;;4997159;28;121648;-65
2022/03/24 00:26:12;;;;;;;;;;;;;;;;;;4987157;28;136457;-66
2022/03/24 00:28:38;;;;;;;;;;;;;;;;;;4998245;28;106856;-66
2022/03/24 00:31:06;;;;;;;;;;;;;;;;;;4987386;28;105999;-65
2022/03/24 00:33:32;;;;;;;;;;;;;;;;;;4994656;28;134933;-66
2022/03/24 00:35:59;;;;;;;;;;;;;;;;;;5004756;28;107241;-66
2022/03/24 00:38:26;;;;;;;;;;;;;;;;;;4997762;28;106293;-65
2022/03/24 00:40:54;;;;;;;;;;;;;;;;;;4996499;28;137980;-65
2022/03/24 00:43:21;;;;;;;;;;;;;;;;;;4976442;28;106122;-66
2022/03/24 00:45:48;;;;;;;;;;;;;;;;;;5009040;28;106170;-65
2022/03/24 00:48:15;;;;;;;;;;;;;;;;;;5000248;28;135671;-65
2022/03/24 00:50:42;;;;;;;;;;;;;;;;;;4986215;28;121878;-64
2022/03/24 00:53:09;;;;;;;;;;;;;;;;;;4998616;28;107159;-64
2022/03/24 00:55:35;;;;;;;;;;;;;;;;;;4987947;28;135655;-65
2022/03/24 00:58:01;;;;;;;;;;;;;;;;;;4978312;28;122232;-65
2022/03/24 01:00:30;;;;;;;;;;;;;;;;;;4991097;28;108435;-64
2022/03/24 01:02:58;;;;;;;;;;;;;;;;;;4951896;28;1099034;-64
2022/03/24 01:05:27;;;;;;;;;;;;;;;;;;4985843;28;134358;-64
2022/03/24 01:07:53;;;;;;;;;;;;;;;;;;5003044;28;135811;-64
2022/03/24 01:10:20;;;;;;;;;;;;;;;;;;5000608;28;121495;-64
2022/03/24 01:12:46;;;;;;;;;;;;;;;;;;4991480;28;106598;-64
2022/03/24 01:15:14;;;;;;;;;;;;;;;;;;5002407;28;124639;-64
2022/03/24 01:17:40;;;;;;;;;;;;;;;;;;4970401;28;114260;-64
2022/03/24 01:20:08;;;;;;;;;;;;;;;;;;5004594;28;107356;-65
2022/03/24 01:22:35;;;;;;;;;;;;;;;;;;4992448;28;106629;-64
2022/03/24 01:25:01;;;;;;;;;;;;;;;;;;5003802;28;131772;-64
2022/03/24 01:27:28;;;;;;;;;;;;;;;;;;4989978;28;106804;-63
2022/03/24 01:29:54;;;;;;;;;;;;;;;;;;5005555;28;122278;-63
2022/03/24 01:32:20;;;;;;;;;;;;;;;;;;5011436;27;107068;-64
2022/03/24 01:34:48;;;;;;;;;;;;;;;;;;5008052;28;107274;-64
2022/03/24 01:37:14;;;;;;;;;;;;;;;;;;4977151;28;122411;-64
2022/03/24 01:39:40;;;;;;;;;;;;;;;;;;5006306;27;135328;-64
2022/03/24 01:42:07;;;;;;;;;;;;;;;;;;4994030;28;108389;-64
2022/03/24 01:44:33;;;;;;;;;;;;;;;;;;5005612;28;135922;-64
2022/03/24 01:46:59;;;;;;;;;;;;;;;;;;5012664;28;136438;-64
2022/03/24 01:49:26;;;;;;;;;;;;;;;;;;4991632;28;106125;-65
2022/03/24 01:51:52;;;;;;;;;;;;;;;;;;4989613;28;135861;-64
2022/03/24 01:54:18;;;;;;;;;;;;;;;;;;4974501;28;108886;-64
2022/03/24 01:56:45;;;;;;;;;;;;;;;;;;4992634;28;121887;-64
2022/03/24 01:59:11;;;;;;;;;;;;;;;;;;5008497;28;106600;-65
2022/03/24 02:01:38;;;;;;;;;;;;;;;;;;4991180;28;136742;-64
2022/03/24 02:04:04;;;;;;;;;;;;;;;;;;5012540;28;121451;-65
2022/03/24 02:06:31;;;;;;;;;;;;;;;;;;4987211;28;136129;-64
2022/03/24 02:08:57;;;;;;;;;;;;;;;;;;5004928;28;121776;-64
2022/03/24 02:11:24;;;;;;;;;;;;;;;;;;4989970;28;108656;-64
2022/03/24 02:13:51;;;;;;;;;;;;;;;;;;5008589;28;107726;-64
2022/03/24 02:16:17;;;;;;;;;;;;;;;;;;4973360;28;124195;-64
2022/03/24 02:18:46;;;;;;;;;;;;;;;;;;4985133;28;136599;-65
2022/03/24 02:21:14;;;;;;;;;;;;;;;;;;4972934;28;137455;-64
2022/03/24 02:23:41;;;;;;;;;;;;;;;;;;5001887;28;106347;-64
2022/03/24 02:26:07;;;;;;;;;;;;;;;;;;4995147;28;137737;-64
2022/03/24 02:28:34;;;;;;;;;;;;;;;;;;5006800;28;123418;-64
2022/03/24 02:31:00;;;;;;;;;;;;;;;;;;5011041;28;136306;-64
2022/03/24 02:33:26;;;;;;;;;;;;;;;;;;4994907;28;136956;-64
2022/03/24 02:35:53;;;;;;;;;;;;;;;;;;4991859;28;106173;-64
2022/03/24 02:38:22;;;;;;;;;;;;;;;;;;5005781;28;135301;-64
2022/03/24 02:40:49;;;;;;;;;;;;;;;;;;4988565;28;135892;-64
2022/03/24 02:43:16;;;;;;;;;;;;;;;;;;5006570;28;122222;-65
2022/03/24 02:45:42;;;;;;;;;;;;;;;;;;5011285;28;136447;-64
2022/03/24 02:48:09;;;;;;;;;;;;;;;;;;4998983;28;110035;-66
2022/03/24 02:50:35;;;;;;;;;;;;;;;;;;5007973;28;136496;-65
2022/03/24 02:53:01;;;;;;;;;;;;;;;;;;4998547;28;107787;-64
2022/03/24 02:55:28;;;;;;;;;;;;;;;;;;4996676;28;105980;-64
2022/03/24 02:57:54;;;;;;;;;;;;;;;;;;5011746;28;125741;-64
2022/03/24 03:00:22;;;;;;;;;;;;;;;;;;4993772;28;137359;-64
2022/03/24 03:02:48;;;;;;;;;;;;;;;;;;4999533;28;107379;-64
2022/03/24 03:05:15;;;;;;;;;;;;;;;;;;5009364;27;135168;-64
2022/03/24 03:07:42;;;;;;;;;;;;;;;;;;4994832;28;136253;-64
2022/03/24 03:10:08;;;;;;;;;;;;;;;;;;5014386;27;106225;-64
2022/03/24 03:12:34;;;;;;;;;;;;;;;;;;4994609;28;128951;-66
2022/03/24 03:15:01;;;;;;;;;;;;;;;;;;5006965;28;106198;-64
2022/03/24 03:17:28;;;;;;;;;;;;;;;;;;5008090;28;137980;-64
2022/03/24 03:19:54;;;;;;;;;;;;;;;;;;5005293;28;135743;-64
2022/03/24 03:22:21;;;;;;;;;;;;;;;;;;5009034;28;123241;-64
2022/03/24 03:24:47;;;;;;;;;;;;;;;;;;5006070;28;107433;-64
2022/03/24 03:27:13;;;;;;;;;;;;;;;;;;5005052;28;135827;-63
2022/03/24 03:29:40;;;;;;;;;;;;;;;;;;5010440;28;121705;-64
2022/03/24 03:32:06;;;;;;;;;;;;;;;;;;4997769;28;137763;-64
2022/03/24 03:34:32;;;;;;;;;;;;;;;;;;5001505;28;122423;-64
2022/03/24 03:36:59;;;;;;;;;;;;;;;;;;5005487;28;135935;-64
2022/03/24 03:39:25;;;;;;;;;;;;;;;;;;5003383;28;137856;-64
2022/03/24 03:41:52;;;;;;;;;;;;;;;;;;5003651;28;106870;-64
2022/03/24 03:44:19;;;;;;;;;;;;;;;;;;5005845;28;133883;-64
2022/03/24 03:46:45;;;;;;;;;;;;;;;;;;4997046;27;134207;-65
2022/03/24 03:49:12;;;;;;;;;;;;;;;;;;5008435;28;106869;-64
2022/03/24 03:51:38;;;;;;;;;;;;;;;;;;4996161;28;106724;-64
2022/03/24 03:54:04;;;;;;;;;;;;;;;;;;5005600;28;124161;-64
2022/03/24 03:56:30;;;;;;;;;;;;;;;;;;5002988;28;136376;-63
2022/03/24 03:58:57;;;;;;;;;;;;;;;;;;4998392;28;137132;-63
2022/03/24 04:01:23;;;;;;;;;;;;;;;;;;4991265;28;105840;-64
2022/03/24 04:03:49;;;;;;;;;;;;;;;;;;4997375;28;135271;-64
2022/03/24 04:06:16;;;;;;;;;;;;;;;;;;4999489;28;133027;-64
2022/03/24 04:08:42;;;;;;;;;;;;;;;;;;4997345;28;126305;-64
2022/03/24 04:11:09;;;;;;;;;;;;;;;;;;5003216;28;134750;-63
2022/03/24 04:13:36;;;;;;;;;;;;;;;;;;5006871;28;135594;-63
2022/03/24 04:16:02;;;;;;;;;;;;;;;;;;5007909;28;136740;-63
2022/03/24 04:18:28;;;;;;;;;;;;;;;;;;5003170;28;137756;-64
2022/03/24 04:20:55;;;;;;;;;;;;;;;;;;5001799;28;123617;-63
2022/03/24 04:23:21;;;;;;;;;;;;;;;;;;5003146;28;135897;-63
2022/03/24 04:25:48;;;;;;;;;;;;;;;;;;5002610;28;107228;-64
2022/03/24 04:28:14;;;;;;;;;;;;;;;;;;4996509;28;123135;-64
2022/03/24 04:30:41;;;;;;;;;;;;;;;;;;5003923;28;135759;-64
2022/03/24 04:33:07;;;;;;;;;;;;;;;;;;4994811;28;135581;-64
2022/03/24 04:35:33;;;;;;;;;;;;;;;;;;4999076;28;121912;-64
2022/03/24 04:38:00;;;;;;;;;;;;;;;;;;4998434;28;138626;-64
2022/03/24 04:40:26;;;;;;;;;;;;;;;;;;5009352;28;106326;-63
2022/03/24 04:42:52;;;;;;;;;;;;;;;;;;4993769;28;134190;-63
2022/03/24 04:45:19;;;;;;;;;;;;;;;;;;5003590;28;135821;-64
2022/03/24 04:47:45;;;;;;;;;;;;;;;;;;5010323;28;121853;-64
2022/03/24 04:50:11;;;;;;;;;;;;;;;;;;4993759;28;136542;-64
2022/03/24 04:52:37;;;;;;;;;;;;;;;;;;4986535;28;135586;-63
2022/03/24 04:55:04;;;;;;;;;;;;;;;;;;5004007;28;123779;-65
2022/03/24 04:57:30;;;;;;;;;;;;;;;;;;4998396;28;137291;-63
2022/03/24 04:59:57;;;;;;;;;;;;;;;;;;5002851;28;123272;-63
2022/03/24 05:02:24;;;;;;;;;;;;;;;;;;5004382;28;135317;-64
2022/03/24 05:04:50;;;;;;;;;;;;;;;;;;4999329;28;134162;-64
2022/03/24 05:07:17;;;;;;;;;;;;;;;;;;4986636;28;124189;-64
2022/03/24 05:09:45;;;;;;;;;;;;;;;;;;4997731;28;135140;-64
2022/03/24 05:12:11;;;;;;;;;;;;;;;;;;5000049;28;133451;-64
2022/03/24 05:14:38;;;;;;;;;;;;;;;;;;5009385;28;122482;-64
2022/03/24 05:17:06;;;;;;;;;;;;;;;;;;4994838;28;135337;-66
2022/03/24 05:19:32;;;;;;;;;;;;;;;;;;5008673;28;137120;-64
2022/03/24 05:21:58;;;;;;;;;;;;;;;;;;5008474;28;136543;-64
2022/03/24 05:24:24;;;;;;;;;;;;;;;;;;4992716;28;137151;-64
2022/03/24 05:26:51;;;;;;;;;;;;;;;;;;5008399;28;121788;-64
2022/03/24 05:29:17;;;;;;;;;;;;;;;;;;4991241;28;106060;-64
2022/03/24 05:31:44;;;;;;;;;;;;;;;;;;4987402;28;107576;-64
2022/03/24 05:34:10;;;;;;;;;;;;;;;;;;4987772;28;121886;-64
2022/03/24 05:36:37;;;;;;;;;;;;;;;;;;4991337;28;136925;-64
2022/03/24 05:39:03;;;;;;;;;;;;;;;;;;4992239;28;137597;-64
2022/03/24 05:41:30;;;;;;;;;;;;;;;;;;5006665;28;118988;-64
2022/03/24 05:44:02;;;;;;;;;;;;;;;;;;5002618;28;113412;-64
2022/03/24 05:46:33;;;;;;;;;;;;;;;;;;5000388;28;125746;-66
2022/03/24 05:48:59;;;;;;;;;;;;;;;;;;4991899;28;136135;-64
2022/03/24 05:51:44;;;;;;;;;;;;;;;;;;5007337;28;107545;-64
2022/03/24 05:54:11;;;;;;;;;;;;;;;;;;4993156;28;105902;-65
2022/03/24 05:56:37;;;;;;;;;;;;;;;;;;5001018;28;137066;-64
2022/03/24 05:59:03;;;;;;;;;;;;;;;;;;5007922;28;137068;-65
2022/03/24 06:01:30;;;;;;;;;;;;;;;;;;5007168;28;123864;-64
2022/03/24 06:03:57;;;;;;;;;;;;;;;;;;5004132;28;135864;-64
2022/03/24 06:06:23;;;;;;;;;;;;;;;;;;5002306;28;122484;-64
2022/03/24 06:08:52;;;;;;;;;;;;;;;;;;5007118;28;136798;-64
2022/03/24 06:11:19;;;;;;;;;;;;;;;;;;4995669;28;137477;-64
2022/03/24 06:13:46;;;;;;;;;;;;;;;;;;5003758;28;106747;-64
2022/03/24 06:16:13;;;;;;;;;;;;;;;;;;5002992;28;135864;-64
2022/03/24 06:18:40;;;;;;;;;;;;;;;;;;5006646;28;135776;-64
2022/03/24 06:21:07;;;;;;;;;;;;;;;;;;5006823;28;123127;-64
2022/03/24 06:23:33;;;;;;;;;;;;;;;;;;5006884;28;136408;-63
2022/03/24 06:25:59;;;;;;;;;;;;;;;;;;5000449;28;123222;-63
2022/03/24 06:28:26;;;;;;;;;;;;;;;;;;4999097;28;132789;-64
2022/03/24 06:30:52;;;;;;;;;;;;;;;;;;5004533;28;137654;-64
2022/03/24 06:33:18;;;;;;;;;;;;;;;;;;4994583;28;123222;-64
2022/03/24 06:35:45;;;;;;;;;;;;;;;;;;5007379;28;133407;-64
2022/03/24 06:38:11;;;;;;;;;;;;;;;;;;5010599;28;135754;-64
2022/03/24 06:40:38;;;;;;;;;;;;;;;;;;4995381;28;113239;-64
2022/03/24 06:43:04;;;;;;;;;;;;;;;;;;5004013;28;136842;-65
2022/03/24 06:45:31;;;;;;;;;;;;;;;;;;5010437;28;125172;-64
2022/03/24 06:47:57;;;;;;;;;;;;;;;;;;4988961;28;136686;-63
2022/03/24 06:50:23;;;;;;;;;;;;;;;;;;5000966;28;137974;-63
2022/03/24 06:52:50;;;;;;;;;;;;;;;;;;5006743;28;121145;-63
2022/03/24 06:55:16;;;;;;;;;;;;;;;;;;5005864;28;137677;-63
2022/03/24 06:57:42;;;;;;;;;;;;;;;;;;5010200;28;137781;-63
2022/03/24 07:00:12;;;;;;;;;;;;;;;;;;5006471;28;125717;-63
2022/03/24 07:02:39;;;;;;;;;;;;;;;;;;5005506;28;135331;-64
2022/03/24 07:05:05;;;;;;;;;;;;;;;;;;5008036;28;108056;-63
2022/03/24 07:07:31;;;;;;;;;;;;;;;;;;5004414;28;122923;-63
2022/03/24 07:09:57;;;;;;;;;;;;;;;;;;4991796;28;138183;-63
2022/03/24 07:12:24;;;;;;;;;;;;;;;;;;5009194;28;106506;-64
2022/03/24 07:14:50;;;;;;;;;;;;;;;;;;5003640;28;137055;-65
2022/03/24 07:17:19;;;;;;;;;;;;;;;;;;5003744;28;118998;-64
2022/03/24 07:19:45;;;;;;;;;;;;;;;;;;5000761;28;120954;-65
2022/03/24 07:22:11;;;;;;;;;;;;;;;;;;5005167;28;136997;-64
2022/03/24 07:24:38;;;;;;;;;;;;;;;;;;5001254;28;113957;-64
2022/03/24 07:27:05;;;;;;;;;;;;;;;;;;5004790;27;123766;-65
2022/03/24 07:29:31;;;;;;;;;;;;;;;;;;5000701;28;136615;-64
2022/03/24 07:31:59;;;;;;;;;;;;;;;;;;4994971;28;123248;-64
2022/03/24 07:34:26;;;;;;;;;;;;;;;;;;4990691;28;133393;-64
2022/03/24 07:36:52;;;;;;;;;;;;;;;;;;4991700;28;120148;-64
2022/03/24 07:39:19;;;;;;;;;;;;;;;;;;5008976;28;123958;-64
2022/03/24 07:41:45;;;;;;;;;;;;;;;;;;5002478;28;135453;-66
2022/03/24 07:44:11;;;;;;;;;;;;;;;;;;5001989;28;135410;-65
2022/03/24 07:46:38;;;;;;;;;;;;;;;;;;4996367;28;106206;-65
2022/03/24 07:49:04;;;;;;;;;;;;;;;;;;5007746;28;136653;-66
2022/03/24 07:51:31;;;;;;;;;;;;;;;;;;5002357;28;118780;-64
2022/03/24 07:53:57;;;;;;;;;;;;;;;;;;5009877;28;135546;-66
2022/03/24 07:56:26;;;;;;;;;;;;;;;;;;5004365;28;131543;-65
2022/03/24 07:58:52;;;;;;;;;;;;;;;;;;5005668;28;123026;-68
2022/03/24 08:01:19;;;;;;;;;;;;;;;;;;4986260;28;134803;-66
2022/03/24 08:03:45;;;;;;;;;;;;;;;;;;4999887;28;109733;-65
2022/03/24 08:06:16;;;;;;;;;;;;;;;;;;5000813;28;112246;-66
2022/03/24 08:08:42;;;;;;;;;;;;;;;;;;4999671;28;137571;-64
2022/03/24 08:11:08;;;;;;;;;;;;;;;;;;5005493;28;137639;-65
2022/03/24 08:13:35;;;;;;;;;;;;;;;;;;5000443;28;136504;-66
2022/03/24 08:16:01;;;;;;;;;;;;;;;;;;4997474;28;137025;-64
2022/03/24 08:18:27;;;;;;;;;;;;;;;;;;4995846;28;121883;-65
2022/03/24 08:20:54;;;;;;;;;;;;;;;;;;5005709;28;114847;-65
2022/03/24 08:23:21;;;;;;;;;;;;;;;;;;5005924;28;136572;-65
2022/03/24 08:25:47;;;;;;;;;;;;;;;;;;4995186;28;123255;-65
2022/03/24 08:28:13;;;;;;;;;;;;;;;;;;4999321;28;137249;-65
2022/03/24 08:30:40;;;;;;;;;;;;;;;;;;5002827;28;136812;-65
2022/03/24 08:33:06;;;;;;;;;;;;;;;;;;5010636;28;122146;-67
2022/03/24 08:35:32;;;;;;;;;;;;;;;;;;5005871;28;117264;-64
2022/03/24 08:38:00;;;;;;;;;;;;;;;;;;5008074;27;124158;-64
2022/03/24 08:40:26;;;;;;;;;;;;;;;;;;5006494;28;136295;-65
2022/03/24 08:42:52;;;;;;;;;;;;;;;;;;4996428;28;137029;-66
2022/03/24 08:45:19;;;;;;;;;;;;;;;;;;4993203;28;124258;-65
2022/03/24 08:47:45;;;;;;;;;;;;;;;;;;4991227;28;135251;-65
2022/03/24 08:50:12;;;;;;;;;;;;;;;;;;5003477;28;136992;-64
2022/03/24 08:52:38;;;;;;;;;;;;;;;;;;5006704;28;111836;-65
2022/03/24 08:55:05;;;;;;;;;;;;;;;;;;4998242;28;138723;-65
2022/03/24 08:57:31;;;;;;;;;;;;;;;;;;4985893;28;114772;-66
2022/03/24 09:00:00;;;;;;;;;;;;;;;;;;5001007;28;136411;-68
2022/03/24 09:02:26;;;;;;;;;;;;;;;;;;5002983;28;107157;-66
2022/03/24 09:04:53;;;;;;;;;;;;;;;;;;5000967;28;122931;-66
2022/03/24 09:07:33;;;;;;;;;;;;;;;;;;5005791;28;136320;-66
2022/03/24 09:09:59;;;;;;;;;;;;;;;;;;5007247;28;134305;-65
2022/03/24 09:12:26;;;;;;;;;;;;;;;;;;5001646;28;121700;-65
2022/03/24 09:14:52;;;;;;;;;;;;;;;;;;5001796;28;136678;-64
2022/03/24 09:17:18;;;;;;;;;;;;;;;;;;5003281;28;136475;-66
2022/03/24 09:19:45;;;;;;;;;;;;;;;;;;5000339;28;135970;-67
2022/03/24 09:22:11;;;;;;;;;;;;;;;;;;5003896;27;135519;-66
2022/03/24 09:24:38;;;;;;;;;;;;;;;;;;5005473;27;112229;-65
2022/03/24 09:27:05;;;;;;;;;;;;;;;;;;4998938;28;106500;-68
2022/03/24 09:29:31;;;;;;;;;;;;;;;;;;5003011;27;132489;-65
2022/03/24 09:31:58;;;;;;;;;;;;;;;;;;5004690;28;123151;-65
2022/03/24 09:34:25;;;;;;;;;;;;;;;;;;4986079;28;135691;-65
2022/03/24 09:36:51;;;;;;;;;;;;;;;;;;5004682;28;131753;-64
2022/03/24 09:39:19;;;;;;;;;;;;;;;;;;5006695;28;123163;-64
2022/03/24 09:41:47;;;;;;;;;;;;;;;;;;4994193;28;112939;-64
2022/03/24 09:44:13;;;;;;;;;;;;;;;;;;5001782;28;122907;-65
2022/03/24 09:46:40;;;;;;;;;;;;;;;;;;5003077;28;136922;-66
2022/03/24 09:49:07;;;;;;;;;;;;;;;;;;5005538;27;135998;-65
2022/03/24 09:51:33;;;;;;;;;;;;;;;;;;5008846;28;124533;-67
2022/03/24 09:53:59;;;;;;;;;;;;;;;;;;5010040;28;114319;-64
2022/03/24 09:56:25;;;;;;;;;;;;;;;;;;5005182;28;134873;-65
2022/03/24 09:58:52;;;;;;;;;;;;;;;;;;5011858;28;122533;-64
2022/03/24 10:01:18;;;;;;;;;;;;;;;;;;5003807;28;136425;-64
2022/03/24 10:03:45;;;;;;;;;;;;;;;;;;5006124;28;123584;-65
2022/03/24 10:06:12;;;;;;;;;;;;;;;;;;5006657;28;139914;-66
2022/03/24 10:08:38;;;;;;;;;;;;;;;;;;4997759;28;130742;-67
2022/03/24 10:11:04;;;;;;;;;;;;;;;;;;5009230;28;115389;-67
2022/03/24 10:13:30;;;;;;;;;;;;;;;;;;4999478;28;137393;-65
2022/03/24 10:15:57;;;;;;;;;;;;;;;;;;5005078;27;136467;-67
2022/03/24 10:18:26;;;;;;;;;;;;;;;;;;4999138;28;122161;-67
2022/03/24 10:20:53;;;;;;;;;;;;;;;;;;5007300;28;107190;-65
2022/03/24 10:23:19;;;;;;;;;;;;;;;;;;5001317;28;123022;-65
2022/03/24 10:25:46;;;;;;;;;;;;;;;;;;5001229;28;136528;-66
2022/03/24 10:28:13;;;;;;;;;;;;;;;;;;5006961;28;138398;-64
2022/03/24 10:30:40;;;;;;;;;;;;;;;;;;4997685;28;123290;-65
2022/03/24 10:33:06;;;;;;;;;;;;;;;;;;4998083;28;135912;-66
2022/03/24 10:35:32;;;;;;;;;;;;;;;;;;5007259;28;126502;-65
2022/03/24 10:37:59;;;;;;;;;;;;;;;;;;5005824;28;107522;-65
2022/03/24 10:40:25;;;;;;;;;;;;;;;;;;5005597;28;135978;-65
2022/03/24 10:42:55;;;;;;;;;;;;;;;;;;5007016;28;133286;-65
2022/03/24 10:45:21;;;;;;;;;;;;;;;;;;4980777;28;137628;-66
2022/03/24 10:47:48;;;;;;;;;;;;;;;;;;5009947;28;137762;-66
2022/03/24 10:50:14;;;;;;;;;;;;;;;;;;4989245;28;122237;-66
2022/03/24 10:52:40;;;;;;;;;;;;;;;;;;5009079;28;137485;-66
2022/03/24 10:55:06;;;;;;;;;;;;;;;;;;5000040;28;126503;-66
2022/03/24 10:57:34;;;;;;;;;;;;;;;;;;5009016;28;110240;-68
2022/03/24 11:00:03;;;;;;;;;;;;;;;;;;4995247;28;134858;-68
2022/03/24 11:02:30;;;;;;;;;;;;;;;;;;4997695;28;137817;-67
2022/03/24 11:04:56;;;;;;;;;;;;;;;;;;5009475;28;125584;-68
2022/03/24 11:07:22;;;;;;;;;;;;;;;;;;5004008;28;136404;-67
2022/03/24 11:09:49;;;;;;;;;;;;;;;;;;5011606;28;122835;-68
2022/03/24 11:12:15;;;;;;;;;;;;;;;;;;5003701;28;138101;-65
2022/03/24 11:14:41;;;;;;;;;;;;;;;;;;4994609;28;136951;-68
2022/03/24 11:17:08;;;;;;;;;;;;;;;;;;5008526;28;117059;-65
2022/03/24 11:19:34;;;;;;;;;;;;;;;;;;5001067;28;107471;-66
2022/03/24 11:22:01;;;;;;;;;;;;;;;;;;5010064;28;137758;-68
2022/03/24 11:24:27;;;;;;;;;;;;;;;;;;5006477;28;106501;-64
2022/03/24 11:26:53;;;;;;;;;;;;;;;;;;5008512;28;133872;-64
2022/03/24 11:29:20;;;;;;;;;;;;;;;;;;5004844;28;124207;-65
2022/03/24 11:32:04;;;;;;;;;;;;;;;;;;5001904;28;106717;-64
2022/03/24 11:34:31;;;;;;;;;;;;;;;;;;5002714;28;138348;-66
2022/03/24 11:36:57;;;;;;;;;;;;;;;;;;5010452;28;123173;-66
2022/03/24 11:39:23;;;;;;;;;;;;;;;;;;4993591;28;136441;-66
2022/03/24 11:41:49;;;;;;;;;;;;;;;;;;4997748;28;136105;-66
2022/03/24 11:44:16;;;;;;;;;;;;;;;;;;5009774;28;123500;-66
2022/03/24 11:46:42;;;;;;;;;;;;;;;;;;4998105;28;135298;-66
2022/03/24 11:49:08;;;;;;;;;;;;;;;;;;4991729;28;105640;-66
2022/03/24 11:51:35;;;;;;;;;;;;;;;;;;5004488;28;135151;-66
2022/03/24 11:54:02;;;;;;;;;;;;;;;;;;4992688;28;137097;-65
2022/03/24 11:56:28;;;;;;;;;;;;;;;;;;5000018;28;123762;-67
2022/03/24 11:58:55;;;;;;;;;;;;;;;;;;4990815;28;133518;-66
2022/03/24 12:01:23;;;;;;;;;;;;;;;;;;5005197;28;137049;-66
2022/03/24 12:03:50;;;;;;;;;;;;;;;;;;5005549;28;123722;-66
2022/03/24 12:06:17;;;;;;;;;;;;;;;;;;5009614;28;133670;-66
2022/03/24 12:08:43;;;;;;;;;;;;;;;;;;4997313;28;137128;-66
2022/03/24 12:11:09;;;;;;;;;;;;;;;;;;4994145;28;136639;-67
2022/03/24 12:13:36;;;;;;;;;;;;;;;;;;4989092;28;117781;-67
2022/03/24 12:16:02;;;;;;;;;;;;;;;;;;5001500;28;122042;-66
2022/03/24 12:18:28;;;;;;;;;;;;;;;;;;5008547;28;130412;-66
2022/03/24 12:20:54;;;;;;;;;;;;;;;;;;4997266;28;136537;-64
2022/03/24 12:23:21;;;;;;;;;;;;;;;;;;4998913;28;121244;-66
2022/03/24 12:25:47;;;;;;;;;;;;;;;;;;4996839;28;136822;-65
2022/03/24 12:28:15;;;;;;;;;;;;;;;;;;4993606;28;137311;-66
2022/03/24 12:30:41;;;;;;;;;;;;;;;;;;5007041;28;123845;-66
2022/03/24 12:33:08;;;;;;;;;;;;;;;;;;5005798;28;106387;-66
2022/03/24 12:35:34;;;;;;;;;;;;;;;;;;4992655;28;120731;-67
2022/03/24 12:38:00;;;;;;;;;;;;;;;;;;4993784;28;137405;-66
2022/03/24 12:40:27;;;;;;;;;;;;;;;;;;4990175;28;108786;-66
2022/03/24 12:42:53;;;;;;;;;;;;;;;;;;5009450;28;125763;-67
2022/03/24 12:45:20;;;;;;;;;;;;;;;;;;5003518;28;135566;-65
2022/03/24 12:47:47;;;;;;;;;;;;;;;;;;5003753;28;136522;-66
2022/03/24 12:50:13;;;;;;;;;;;;;;;;;;5007096;28;122404;-67
2022/03/24 12:52:43;;;;;;;;;;;;;;;;;;5004944;28;136273;-65
2022/03/24 12:55:09;;;;;;;;;;;;;;;;;;4996004;28;123668;-67
2022/03/24 12:57:36;;;;;;;;;;;;;;;;;;4997036;28;136623;-63
2022/03/24 13:00:03;;;;;;;;;;;;;;;;;;4993420;28;135091;-64
2022/03/24 13:02:29;;;;;;;;;;;;;;;;;;5007659;28;124315;-63
2022/03/24 13:04:56;;;;;;;;;;;;;;;;;;4999654;28;119252;-64
2022/03/24 13:07:24;;;;;;;;;;;;;;;;;;5000243;28;136628;-63
2022/03/24 13:09:55;;;;;;;;;;;;;;;;;;4997798;28;121693;-64
2022/03/24 13:12:21;;;;;;;;;;;;;;;;;;4996227;28;137389;-63
2022/03/24 13:14:48;;;;;;;;;;;;;;;;;;5001756;28;133783;-67
2022/03/24 13:17:15;;;;;;;;;;;;;;;;;;4986731;28;136049;-67
2022/03/24 13:19:42;;;;;;;;;;;;;;;;;;5001011;27;128328;-67
2022/03/24 13:22:09;;;;;;;;;;;;;;;;;;4994907;28;123880;-66
2022/03/24 13:24:36;;;;;;;;;;;;;;;;;;5000681;28;137219;-67
2022/03/24 13:27:02;;;;;;;;;;;;;;;;;;4992194;28;138191;-67
2022/03/24 13:29:28;;;;;;;;;;;;;;;;;;5004943;28;114306;-66
2022/03/24 13:31:54;;;;;;;;;;;;;;;;;;5000314;27;137576;-66
2022/03/24 13:34:21;;;;;;;;;;;;;;;;;;5002494;28;135961;-66
2022/03/24 13:36:47;;;;;;;;;;;;;;;;;;5008071;28;123908;-67
2022/03/24 13:39:13;;;;;;;;;;;;;;;;;;5000221;28;138485;-66
2022/03/24 13:41:39;;;;;;;;;;;;;;;;;;5007000;28;108392;-66
2022/03/24 13:44:06;;;;;;;;;;;;;;;;;;5000412;28;137713;-70
2022/03/24 13:46:32;;;;;;;;;;;;;;;;;;5005385;28;125224;-69
2022/03/24 13:48:59;;;;;;;;;;;;;;;;;;4992961;28;122525;-68
2022/03/24 13:51:27;;;;;;;;;;;;;;;;;;4996459;28;137027;-67
2022/03/24 13:53:53;;;;;;;;;;;;;;;;;;4999107;28;135441;-66
2022/03/24 13:56:20;;;;;;;;;;;;;;;;;;5008816;27;124922;-66
2022/03/24 13:58:46;;;;;;;;;;;;;;;;;;5010139;28;138443;-66
2022/03/24 14:01:12;;;;;;;;;;;;;;;;;;5008292;28;106904;-69
2022/03/24 14:03:39;;;;;;;;;;;;;;;;;;5007494;28;124034;-66
2022/03/24 14:06:05;;;;;;;;;;;;;;;;;;5001797;28;138519;-66
2022/03/24 14:08:32;;;;;;;;;;;;;;;;;;5007828;28;106718;-66
2022/03/24 14:10:58;;;;;;;;;;;;;;;;;;5011177;28;137042;-66
2022/03/24 14:13:25;;;;;;;;;;;;;;;;;;4995820;27;137727;-67
2022/03/24 14:15:51;;;;;;;;;;;;;;;;;;5008990;27;123792;-68
2022/03/24 14:18:18;;;;;;;;;;;;;;;;;;4995452;27;136191;-67
2022/03/24 14:20:44;;;;;;;;;;;;;;;;;;5003144;28;127980;-67
2022/03/24 14:23:10;;;;;;;;;;;;;;;;;;4998383;27;135620;-68
2022/03/24 14:25:37;;;;;;;;;;;;;;;;;;4999350;28;136103;-71
2022/03/24 14:28:03;;;;;;;;;;;;;;;;;;5005125;28;123197;-65
2022/03/24 14:30:29;;;;;;;;;;;;;;;;;;4984697;28;110142;-69
2022/03/24 14:32:56;;;;;;;;;;;;;;;;;;5007754;28;134278;-70
2022/03/24 14:35:23;;;;;;;;;;;;;;;;;;5008796;28;123329;-67
2022/03/24 14:37:57;;;;;;;;;;;;;;;;;;5001118;28;135067;-66
2022/03/24 14:40:24;;;;;;;;;;;;;;;;;;5010428;28;107847;-66
2022/03/24 14:42:50;;;;;;;;;;;;;;;;;;5005560;28;136101;-66
2022/03/24 14:45:16;;;;;;;;;;;;;;;;;;5006456;28;127137;-67
2022/03/24 14:47:43;;;;;;;;;;;;;;;;;;5004206;28;123938;-67
2022/03/24 14:50:09;;;;;;;;;;;;;;;;;;5006623;28;107327;-68
2022/03/24 14:52:35;;;;;;;;;;;;;;;;;;4996672;28;139104;-67
2022/03/24 14:55:02;;;;;;;;;;;;;;;;;;5003388;28;123114;-67
2022/03/24 14:57:29;;;;;;;;;;;;;;;;;;5004337;28;133811;-68
2022/03/24 14:59:55;;;;;;;;;;;;;;;;;;5004965;28;137268;-67
2022/03/24 15:02:21;;;;;;;;;;;;;;;;;;5005901;28;109154;-69
2022/03/24 15:04:48;;;;;;;;;;;;;;;;;;5000254;28;137452;-68
2022/03/24 15:07:14;;;;;;;;;;;;;;;;;;4999936;28;124893;-69
2022/03/24 15:09:40;;;;;;;;;;;;;;;;;;4997379;28;136771;-69
2022/03/24 15:12:08;;;;;;;;;;;;;;;;;;4994232;28;137679;-68
2022/03/24 15:17:19;;;;;;;;;;;;;;;;;;4996994;28;136614;-68
2022/03/24 15:19:45;;;;;;;;;;;;;;;;;;4993976;28;138084;-68
2022/03/24 15:22:11;;;;;;;;;;;;;;;;;;5001205;28;124470;-69
2022/03/24 15:24:38;;;;;;;;;;;;;;;;;;5003164;28;139725;-68
2022/03/24 15:27:04;;;;;;;;;;;;;;;;;;4993392;28;125958;-69
2022/03/24 15:29:34;;;;;;;;;;;;;;;;;;5000654;28;111198;-69
2022/03/24 15:32:00;;;;;;;;;;;;;;;;;;4999514;28;138054;-69
2022/03/24 15:34:28;;;;;;;;;;;;;;;;;;5005261;28;124863;-66
2022/03/24 15:36:55;;;;;;;;;;;;;;;;;;4985826;28;117464;-66
2022/03/24 15:39:21;;;;;;;;;;;;;;;;;;5001669;28;108807;-67
2022/03/24 15:41:48;;;;;;;;;;;;;;;;;;5001551;28;123076;-67
2022/03/24 15:44:18;;;;;;;;;;;;;;;;;;4997211;28;138247;-67
2022/03/24 15:46:44;;;;;;;;;;;;;;;;;;5000865;27;138659;-67
2022/03/24 15:49:11;;;;;;;;;;;;;;;;;;4998866;28;136217;-67
2022/03/24 15:51:38;;;;;;;;;;;;;;;;;;4995562;28;138563;-68
2022/03/24 15:54:04;;;;;;;;;;;;;;;;;;4997063;28;124331;-69
2022/03/24 15:56:30;;;;;;;;;;;;;;;;;;4990279;28;137990;-67
2022/03/24 15:58:57;;;;;;;;;;;;;;;;;;5004437;28;129089;-68
2022/03/24 16:01:24;;;;;;;;;;;;;;;;;;4997175;28;115356;-67
2022/03/24 16:03:53;;;;;;;;;;;;;;;;;;4992692;28;138196;-67
2022/03/24 16:06:20;;;;;;;;;;;;;;;;;;5004846;28;138582;-67
2022/03/24 16:08:46;;;;;;;;;;;;;;;;;;5002422;28;135187;-67
2022/03/24 16:11:16;;;;;;;;;;;;;;;;;;5004552;28;139507;-68
2022/03/24 16:13:43;;;;;;;;;;;;;;;;;;4999503;28;122338;-69
2022/03/24 16:16:09;;;;;;;;;;;;;;;;;;4999404;27;138025;-69
2022/03/24 16:18:36;;;;;;;;;;;;;;;;;;5002692;28;138522;-67
2022/03/24 16:21:02;;;;;;;;;;;;;;;;;;4976951;27;123212;-67
2022/03/24 16:23:28;;;;;;;;;;;;;;;;;;5001294;27;137999;-69
2022/03/24 16:25:55;;;;;;;;;;;;;;;;;;5003298;28;140778;-67
2022/03/24 16:28:21;;;;;;;;;;;;;;;;;;4997814;27;124588;-67